Terminal Aerodrome Forecast
Issued by NWS Birmingham, AL

Home | Current Version | Previous Version | Text Only | Print | Product List | Glossary On
Versions: 1 2 3 4 5 6 7 8 9 10 11 12 13 14 15 16 17 18
000
FTUS44 KBMX 252340
TAFBHM
TAF
KBHM 252340Z 2600/2624 VRB04KT 6SM -RA BR BKN007 OVC050
     FM260400 07004KT 5SM -RA BR SCT008 OVC025
     FM260800 03006KT 4SM -RA BR SCT002 OVC007
     FM261300 35007KT P6SM BKN007 OVC012
     FM261700 35007KT P6SM BKN025=

USA.gov is the U.S. government's official web portal to all federal, state and local government web resources and services.